sensor_id;sensor_type;location;lat;lon;timestamp;P1;durP1;ratioP1;P2;durP2;ratioP2
7653;SDS011;3869;48.406;10.774;2023-06-19T00:00:18;2.57;;;2.40;;
7653;SDS011;3869;48.406;10.774;2023-06-19T00:02:47;4.20;;;3.57;;
7653;SDS011;3869;48.406;10.774;2023-06-19T00:05:15;3.30;;;3.00;;
7653;SDS011;3869;48.406;10.774;2023-06-19T00:07:43;3.50;;;3.20;;
7653;SDS011;3869;48.406;10.774;2023-06-19T00:10:11;2.97;;;2.50;;
7653;SDS011;3869;48.406;10.774;2023-06-19T00:12:39;3.60;;;3.03;;
7653;SDS011;3869;48.406;10.774;2023-06-19T00:15:09;4.17;;;3.20;;
7653;SDS011;3869;48.406;10.774;2023-06-19T00:17:38;4.10;;;3.03;;
7653;SDS011;3869;48.406;10.774;2023-06-19T00:20:06;2.87;;;2.03;;
7653;SDS011;3869;48.406;10.774;2023-06-19T00:22:35;3.30;;;2.40;;
7653;SDS011;3869;48.406;10.774;2023-06-19T00:25:04;3.90;;;2.93;;
7653;SDS011;3869;48.406;10.774;2023-06-19T00:27:32;4.37;;;3.13;;
7653;SDS011;3869;48.406;10.774;2023-06-19T00:30:00;5.40;;;3.27;;
7653;SDS011;3869;48.406;10.774;2023-06-19T00:32:30;4.40;;;3.03;;
7653;SDS011;3869;48.406;10.774;2023-06-19T00:35:13;5.87;;;3.40;;
7653;SDS011;3869;48.406;10.774;2023-06-19T00:37:42;2.07;;;1.97;;
7653;SDS011;3869;48.406;10.774;2023-06-19T00:40:19;4.73;;;3.53;;
7653;SDS011;3869;48.406;10.774;2023-06-19T00:42:53;3.70;;;2.87;;
7653;SDS011;3869;48.406;10.774;2023-06-19T00:45:21;3.60;;;3.13;;
7653;SDS011;3869;48.406;10.774;2023-06-19T00:47:52;3.20;;;2.80;;
7653;SDS011;3869;48.406;10.774;2023-06-19T00:50:21;3.27;;;3.00;;
7653;SDS011;3869;48.406;10.774;2023-06-19T00:52:50;3.27;;;2.67;;
7653;SDS011;3869;48.406;10.774;2023-06-19T00:55:19;4.40;;;3.30;;
7653;SDS011;3869;48.406;10.774;2023-06-19T00:57:48;3.83;;;2.80;;
7653;SDS011;3869;48.406;10.774;2023-06-19T01:00:18;3.57;;;2.80;;
7653;SDS011;3869;48.406;10.774;2023-06-19T01:02:47;3.53;;;3.00;;
7653;SDS011;3869;48.406;10.774;2023-06-19T01:05:17;9.03;;;3.43;;
7653;SDS011;3869;48.406;10.774;2023-06-19T01:07:48;6.30;;;3.13;;
7653;SDS011;3869;48.406;10.774;2023-06-19T01:10:21;3.30;;;2.63;;
7653;SDS011;3869;48.406;10.774;2023-06-19T01:12:55;3.03;;;2.53;;
7653;SDS011;3869;48.406;10.774;2023-06-19T01:15:27;4.10;;;2.60;;
7653;SDS011;3869;48.406;10.774;2023-06-19T01:17:56;3.70;;;2.23;;
7653;SDS011;3869;48.406;10.774;2023-06-19T01:20:27;3.03;;;2.83;;
7653;SDS011;3869;48.406;10.774;2023-06-19T01:23:00;6.23;;;3.07;;
7653;SDS011;3869;48.406;10.774;2023-06-19T01:25:33;6.83;;;3.17;;
7653;SDS011;3869;48.406;10.774;2023-06-19T01:28:02;3.13;;;2.80;;
7653;SDS011;3869;48.406;10.774;2023-06-19T01:30:31;4.03;;;3.00;;
7653;SDS011;3869;48.406;10.774;2023-06-19T01:33:03;3.83;;;2.43;;
7653;SDS011;3869;48.406;10.774;2023-06-19T01:35:36;2.40;;;1.90;;
7653;SDS011;3869;48.406;10.774;2023-06-19T01:38:09;3.57;;;2.87;;
7653;SDS011;3869;48.406;10.774;2023-06-19T01:40:38;4.63;;;2.83;;
7653;SDS011;3869;48.406;10.774;2023-06-19T01:43:08;5.13;;;3.10;;
7653;SDS011;3869;48.406;10.774;2023-06-19T01:45:37;5.63;;;3.17;;
7653;SDS011;3869;48.406;10.774;2023-06-19T01:48:05;13.10;;;3.63;;
7653;SDS011;3869;48.406;10.774;2023-06-19T01:50:33;2.70;;;2.50;;
7653;SDS011;3869;48.406;10.774;2023-06-19T01:53:01;3.40;;;3.10;;
7653;SDS011;3869;48.406;10.774;2023-06-19T01:55:30;2.73;;;2.53;;
7653;SDS011;3869;48.406;10.774;2023-06-19T01:57:58;3.50;;;3.00;;
7653;SDS011;3869;48.406;10.774;2023-06-19T02:00:26;4.03;;;2.80;;
7653;SDS011;3869;48.406;10.774;2023-06-19T02:02:54;3.93;;;3.07;;
7653;SDS011;3869;48.406;10.774;2023-06-19T02:05:22;2.80;;;2.60;;
7653;SDS011;3869;48.406;10.774;2023-06-19T02:07:50;5.57;;;3.10;;
7653;SDS011;3869;48.406;10.774;2023-06-19T02:10:18;6.43;;;3.17;;
7653;SDS011;3869;48.406;10.774;2023-06-19T02:12:48;3.27;;;2.93;;
7653;SDS011;3869;48.406;10.774;2023-06-19T02:15:16;2.43;;;2.30;;
7653;SDS011;3869;48.406;10.774;2023-06-19T02:17:44;3.27;;;2.57;;
7653;SDS011;3869;48.406;10.774;2023-06-19T02:20:13;3.30;;;3.00;;
7653;SDS011;3869;48.406;10.774;2023-06-19T02:22:42;4.23;;;3.13;;
7653;SDS011;3869;48.406;10.774;2023-06-19T02:25:09;2.57;;;2.37;;
7653;SDS011;3869;48.406;10.774;2023-06-19T02:27:37;2.90;;;2.70;;
7653;SDS011;3869;48.406;10.774;2023-06-19T02:30:07;5.43;;;3.40;;
7653;SDS011;3869;48.406;10.774;2023-06-19T02:32:36;4.03;;;2.60;;
7653;SDS011;3869;48.406;10.774;2023-06-19T02:35:05;3.70;;;3.00;;
7653;SDS011;3869;48.406;10.774;2023-06-19T02:37:35;2.80;;;2.40;;
7653;SDS011;3869;48.406;10.774;2023-06-19T02:40:03;2.70;;;2.50;;
7653;SDS011;3869;48.406;10.774;2023-06-19T02:42:32;4.23;;;3.40;;
7653;SDS011;3869;48.406;10.774;2023-06-19T02:45:00;3.07;;;2.77;;
7653;SDS011;3869;48.406;10.774;2023-06-19T02:47:31;6.30;;;3.00;;
7653;SDS011;3869;48.406;10.774;2023-06-19T02:50:00;3.20;;;3.00;;
7653;SDS011;3869;48.406;10.774;2023-06-19T02:52:29;5.83;;;2.87;;
7653;SDS011;3869;48.406;10.774;2023-06-19T02:54:58;3.00;;;2.43;;
7653;SDS011;3869;48.406;10.774;2023-06-19T02:57:26;3.10;;;2.90;;
7653;SDS011;3869;48.406;10.774;2023-06-19T02:59:54;3.20;;;2.80;;
7653;SDS011;3869;48.406;10.774;2023-06-19T03:02:22;3.30;;;3.10;;
7653;SDS011;3869;48.406;10.774;2023-06-19T03:04:51;4.40;;;3.30;;
7653;SDS011;3869;48.406;10.774;2023-06-19T03:07:19;6.00;;;3.03;;
7653;SDS011;3869;48.406;10.774;2023-06-19T03:09:47;5.43;;;3.23;;
7653;SDS011;3869;48.406;10.774;2023-06-19T03:12:15;4.30;;;2.70;;
7653;SDS011;3869;48.406;10.774;2023-06-19T03:14:43;3.50;;;2.77;;
7653;SDS011;3869;48.406;10.774;2023-06-19T03:17:12;4.10;;;3.13;;
7653;SDS011;3869;48.406;10.774;2023-06-19T03:19:40;4.47;;;3.53;;
7653;SDS011;3869;48.406;10.774;2023-06-19T03:22:09;2.50;;;2.30;;
7653;SDS011;3869;48.406;10.774;2023-06-19T03:24:37;3.90;;;2.33;;
7653;SDS011;3869;48.406;10.774;2023-06-19T03:27:06;6.97;;;3.37;;
7653;SDS011;3869;48.406;10.774;2023-06-19T03:29:34;2.60;;;2.40;;
7653;SDS011;3869;48.406;10.774;2023-06-19T03:32:02;6.20;;;3.80;;
7653;SDS011;3869;48.406;10.774;2023-06-19T03:34:30;7.00;;;2.80;;
7653;SDS011;3869;48.406;10.774;2023-06-19T03:36:58;5.13;;;2.77;;
7653;SDS011;3869;48.406;10.774;2023-06-19T03:39:28;4.70;;;2.67;;
7653;SDS011;3869;48.406;10.774;2023-06-19T03:41:56;7.23;;;2.83;;
7653;SDS011;3869;48.406;10.774;2023-06-19T03:44:24;3.17;;;2.90;;
7653;SDS011;3869;48.406;10.774;2023-06-19T03:46:52;8.47;;;4.03;;
7653;SDS011;3869;48.406;10.774;2023-06-19T03:49:20;7.20;;;2.80;;
7653;SDS011;3869;48.406;10.774;2023-06-19T03:51:47;3.43;;;3.13;;
7653;SDS011;3869;48.406;10.774;2023-06-19T03:54:15;4.43;;;3.70;;
7653;SDS011;3869;48.406;10.774;2023-06-19T03:56:45;4.73;;;2.80;;
7653;SDS011;3869;48.406;10.774;2023-06-19T03:59:13;6.00;;;3.47;;
7653;SDS011;3869;48.406;10.774;2023-06-19T04:01:41;4.63;;;3.00;;
7653;SDS011;3869;48.406;10.774;2023-06-19T04:04:09;3.63;;;2.40;;
7653;SDS011;3869;48.406;10.774;2023-06-19T04:06:37;3.43;;;2.90;;
7653;SDS011;3869;48.406;10.774;2023-06-19T04:09:05;3.27;;;2.77;;
7653;SDS011;3869;48.406;10.774;2023-06-19T04:11:33;3.00;;;2.77;;
7653;SDS011;3869;48.406;10.774;2023-06-19T04:14:02;2.83;;;2.43;;
7653;SDS011;3869;48.406;10.774;2023-06-19T04:16:30;3.90;;;2.43;;
7653;SDS011;3869;48.406;10.774;2023-06-19T04:18:58;3.20;;;2.90;;
7653;SDS011;3869;48.406;10.774;2023-06-19T04:21:26;3.73;;;3.20;;
7653;SDS011;3869;48.406;10.774;2023-06-19T04:23:54;6.20;;;3.50;;
7653;SDS011;3869;48.406;10.774;2023-06-19T04:26:22;9.50;;;3.57;;
7653;SDS011;3869;48.406;10.774;2023-06-19T04:28:50;5.87;;;2.83;;
7653;SDS011;3869;48.406;10.774;2023-06-19T04:31:20;6.30;;;4.00;;
7653;SDS011;3869;48.406;10.774;2023-06-19T04:33:48;6.37;;;3.63;;
7653;SDS011;3869;48.406;10.774;2023-06-19T04:36:16;2.67;;;2.57;;
7653;SDS011;3869;48.406;10.774;2023-06-19T04:38:44;2.20;;;2.00;;
7653;SDS011;3869;48.406;10.774;2023-06-19T04:41:12;2.87;;;2.40;;
7653;SDS011;3869;48.406;10.774;2023-06-19T04:43:40;3.60;;;2.80;;
7653;SDS011;3869;48.406;10.774;2023-06-19T04:46:08;3.47;;;3.07;;
7653;SDS011;3869;48.406;10.774;2023-06-19T04:48:38;5.93;;;3.70;;
7653;SDS011;3869;48.406;10.774;2023-06-19T04:51:07;4.37;;;3.40;;
7653;SDS011;3869;48.406;10.774;2023-06-19T04:53:35;5.80;;;3.10;;
7653;SDS011;3869;48.406;10.774;2023-06-19T04:56:03;5.70;;;2.80;;
7653;SDS011;3869;48.406;10.774;2023-06-19T04:58:31;6.47;;;3.40;;
7653;SDS011;3869;48.406;10.774;2023-06-19T05:00:59;2.80;;;2.60;;
7653;SDS011;3869;48.406;10.774;2023-06-19T05:03:27;3.90;;;3.37;;
7653;SDS011;3869;48.406;10.774;2023-06-19T05:05:57;3.57;;;3.23;;
7653;SDS011;3869;48.406;10.774;2023-06-19T05:08:25;3.63;;;3.07;;
7653;SDS011;3869;48.406;10.774;2023-06-19T05:10:53;6.43;;;3.40;;
7653;SDS011;3869;48.406;10.774;2023-06-19T05:13:21;4.47;;;3.50;;
7653;SDS011;3869;48.406;10.774;2023-06-19T05:15:49;5.70;;;3.17;;
7653;SDS011;3869;48.406;10.774;2023-06-19T05:18:18;4.63;;;3.93;;
7653;SDS011;3869;48.406;10.774;2023-06-19T05:20:46;6.73;;;4.00;;
7653;SDS011;3869;48.406;10.774;2023-06-19T05:23:16;2.80;;;2.50;;
7653;SDS011;3869;48.406;10.774;2023-06-19T05:25:44;5.90;;;3.60;;
7653;SDS011;3869;48.406;10.774;2023-06-19T05:28:12;4.37;;;3.90;;
7653;SDS011;3869;48.406;10.774;2023-06-19T05:30:39;3.50;;;3.17;;
7653;SDS011;3869;48.406;10.774;2023-06-19T05:33:07;6.30;;;4.10;;
7653;SDS011;3869;48.406;10.774;2023-06-19T05:35:36;5.83;;;3.20;;
7653;SDS011;3869;48.406;10.774;2023-06-19T05:38:04;3.30;;;3.00;;
7653;SDS011;3869;48.406;10.774;2023-06-19T05:40:33;8.87;;;3.80;;
7653;SDS011;3869;48.406;10.774;2023-06-19T05:43:01;4.50;;;3.77;;
7653;SDS011;3869;48.406;10.774;2023-06-19T05:45:29;3.20;;;2.90;;
7653;SDS011;3869;48.406;10.774;2023-06-19T05:47:57;3.20;;;3.00;;
7653;SDS011;3869;48.406;10.774;2023-06-19T05:50:25;3.90;;;3.00;;
7653;SDS011;3869;48.406;10.774;2023-06-19T05:52:53;3.70;;;2.97;;
7653;SDS011;3869;48.406;10.774;2023-06-19T05:55:21;3.73;;;3.40;;
7653;SDS011;3869;48.406;10.774;2023-06-19T05:57:52;7.37;;;4.07;;
7653;SDS011;3869;48.406;10.774;2023-06-19T06:00:20;6.23;;;4.10;;
7653;SDS011;3869;48.406;10.774;2023-06-19T06:02:49;3.90;;;3.47;;
7653;SDS011;3869;48.406;10.774;2023-06-19T06:05:18;10.63;;;3.67;;
7653;SDS011;3869;48.406;10.774;2023-06-19T06:07:46;5.63;;;3.73;;
7653;SDS011;3869;48.406;10.774;2023-06-19T06:10:14;6.10;;;3.30;;
7653;SDS011;3869;48.406;10.774;2023-06-19T06:12:43;6.00;;;3.33;;
7653;SDS011;3869;48.406;10.774;2023-06-19T06:15:12;3.27;;;2.87;;
7653;SDS011;3869;48.406;10.774;2023-06-19T06:17:40;4.57;;;3.80;;
7653;SDS011;3869;48.406;10.774;2023-06-19T06:20:09;4.47;;;3.60;;
7653;SDS011;3869;48.406;10.774;2023-06-19T06:22:38;2.37;;;2.23;;
7653;SDS011;3869;48.406;10.774;2023-06-19T06:25:07;3.70;;;2.43;;
7653;SDS011;3869;48.406;10.774;2023-06-19T06:27:39;4.17;;;3.30;;
7653;SDS011;3869;48.406;10.774;2023-06-19T06:30:08;3.60;;;3.00;;
7653;SDS011;3869;48.406;10.774;2023-06-19T06:32:39;5.67;;;2.97;;
7653;SDS011;3869;48.406;10.774;2023-06-19T06:35:07;4.50;;;2.77;;
7653;SDS011;3869;48.406;10.774;2023-06-19T06:37:35;3.20;;;2.90;;
7653;SDS011;3869;48.406;10.774;2023-06-19T06:40:04;4.73;;;3.83;;
7653;SDS011;3869;48.406;10.774;2023-06-19T06:42:35;5.03;;;3.23;;
7653;SDS011;3869;48.406;10.774;2023-06-19T06:45:04;7.17;;;2.90;;
7653;SDS011;3869;48.406;10.774;2023-06-19T06:47:33;3.77;;;2.33;;
7653;SDS011;3869;48.406;10.774;2023-06-19T06:50:03;4.90;;;2.83;;
7653;SDS011;3869;48.406;10.774;2023-06-19T06:52:32;4.23;;;3.10;;
7653;SDS011;3869;48.406;10.774;2023-06-19T06:55:00;5.77;;;3.27;;
7653;SDS011;3869;48.406;10.774;2023-06-19T06:57:28;2.90;;;2.70;;
7653;SDS011;3869;48.406;10.774;2023-06-19T06:59:56;3.07;;;2.70;;
7653;SDS011;3869;48.406;10.774;2023-06-19T07:02:24;3.20;;;2.90;;
7653;SDS011;3869;48.406;10.774;2023-06-19T07:04:53;3.33;;;2.83;;
7653;SDS011;3869;48.406;10.774;2023-06-19T07:07:22;1.97;;;1.87;;
7653;SDS011;3869;48.406;10.774;2023-06-19T07:09:50;2.37;;;2.17;;
7653;SDS011;3869;48.406;10.774;2023-06-19T07:12:18;3.50;;;2.03;;
7653;SDS011;3869;48.406;10.774;2023-06-19T07:14:46;4.00;;;2.20;;
7653;SDS011;3869;48.406;10.774;2023-06-19T07:17:14;2.30;;;2.10;;
7653;SDS011;3869;48.406;10.774;2023-06-19T07:19:46;2.60;;;2.40;;
7653;SDS011;3869;48.406;10.774;2023-06-19T07:22:14;2.33;;;2.13;;
7653;SDS011;3869;48.406;10.774;2023-06-19T07:24:43;4.30;;;2.33;;
7653;SDS011;3869;48.406;10.774;2023-06-19T07:27:11;2.43;;;2.03;;
7653;SDS011;3869;48.406;10.774;2023-06-19T07:29:39;3.00;;;2.50;;
7653;SDS011;3869;48.406;10.774;2023-06-19T07:32:07;22.83;;;2.37;;
7653;SDS011;3869;48.406;10.774;2023-06-19T07:34:36;6.70;;;2.30;;
7653;SDS011;3869;48.406;10.774;2023-06-19T07:37:05;1.83;;;1.73;;
7653;SDS011;3869;48.406;10.774;2023-06-19T07:39:33;1.83;;;1.70;;
7653;SDS011;3869;48.406;10.774;2023-06-19T07:42:02;2.70;;;2.30;;
7653;SDS011;3869;48.406;10.774;2023-06-19T07:44:31;2.00;;;1.90;;
7653;SDS011;3869;48.406;10.774;2023-06-19T07:46:59;5.50;;;2.63;;
7653;SDS011;3869;48.406;10.774;2023-06-19T07:49:27;3.53;;;2.10;;
7653;SDS011;3869;48.406;10.774;2023-06-19T07:51:55;2.33;;;2.13;;
7653;SDS011;3869;48.406;10.774;2023-06-19T07:54:23;2.20;;;1.97;;
7653;SDS011;3869;48.406;10.774;2023-06-19T07:56:51;1.70;;;1.60;;
7653;SDS011;3869;48.406;10.774;2023-06-19T07:59:21;1.70;;;1.60;;
7653;SDS011;3869;48.406;10.774;2023-06-19T08:01:49;3.20;;;2.60;;
7653;SDS011;3869;48.406;10.774;2023-06-19T08:04:17;3.43;;;1.90;;
7653;SDS011;3869;48.406;10.774;2023-06-19T08:06:45;2.07;;;1.97;;
7653;SDS011;3869;48.406;10.774;2023-06-19T08:09:13;3.60;;;1.73;;
7653;SDS011;3869;48.406;10.774;2023-06-19T08:11:41;1.77;;;1.67;;
7653;SDS011;3869;48.406;10.774;2023-06-19T08:14:09;6.00;;;2.57;;
7653;SDS011;3869;48.406;10.774;2023-06-19T08:16:39;3.40;;;2.40;;
7653;SDS011;3869;48.406;10.774;2023-06-19T08:19:07;3.63;;;2.20;;
7653;SDS011;3869;48.406;10.774;2023-06-19T08:21:35;2.90;;;2.70;;
7653;SDS011;3869;48.406;10.774;2023-06-19T08:24:03;2.90;;;2.40;;
7653;SDS011;3869;48.406;10.774;2023-06-19T08:26:31;2.70;;;2.50;;
7653;SDS011;3869;48.406;10.774;2023-06-19T08:28:59;2.53;;;2.30;;
7653;SDS011;3869;48.406;10.774;2023-06-19T08:31:27;1.83;;;1.73;;
7653;SDS011;3869;48.406;10.774;2023-06-19T08:33:57;2.33;;;2.23;;
7653;SDS011;3869;48.406;10.774;2023-06-19T08:36:25;3.77;;;2.57;;
7653;SDS011;3869;48.406;10.774;2023-06-19T08:38:53;2.10;;;1.93;;
7653;SDS011;3869;48.406;10.774;2023-06-19T08:41:21;3.40;;;1.90;;
7653;SDS011;3869;48.406;10.774;2023-06-19T08:43:49;2.40;;;1.90;;
7653;SDS011;3869;48.406;10.774;2023-06-19T08:46:18;2.27;;;1.93;;
7653;SDS011;3869;48.406;10.774;2023-06-19T08:48:46;1.57;;;1.47;;
7653;SDS011;3869;48.406;10.774;2023-06-19T08:51:15;3.43;;;2.60;;
7653;SDS011;3869;48.406;10.774;2023-06-19T08:53:44;2.10;;;2.00;;
7653;SDS011;3869;48.406;10.774;2023-06-19T08:56:14;5.10;;;3.33;;
7653;SDS011;3869;48.406;10.774;2023-06-19T08:58:42;3.30;;;2.30;;
7653;SDS011;3869;48.406;10.774;2023-06-19T09:01:10;3.00;;;2.40;;
7653;SDS011;3869;48.406;10.774;2023-06-19T09:03:39;1.90;;;1.80;;
7653;SDS011;3869;48.406;10.774;2023-06-19T09:06:10;2.37;;;2.17;;
7653;SDS011;3869;48.406;10.774;2023-06-19T09:08:40;2.60;;;2.40;;
7653;SDS011;3869;48.406;10.774;2023-06-19T09:11:08;3.23;;;3.00;;
7653;SDS011;3869;48.406;10.774;2023-06-19T09:13:36;1.90;;;1.80;;
7653;SDS011;3869;48.406;10.774;2023-06-19T09:16:05;7.80;;;1.80;;
7653;SDS011;3869;48.406;10.774;2023-06-19T09:18:42;2.70;;;2.50;;
7653;SDS011;3869;48.406;10.774;2023-06-19T09:21:14;2.50;;;2.30;;
7653;SDS011;3869;48.406;10.774;2023-06-19T09:23:45;5.80;;;3.50;;
7653;SDS011;3869;48.406;10.774;2023-06-19T09:26:14;2.57;;;2.37;;
7653;SDS011;3869;48.406;10.774;2023-06-19T09:28:44;2.10;;;2.00;;
7653;SDS011;3869;48.406;10.774;2023-06-19T09:31:12;1.90;;;1.63;;
7653;SDS011;3869;48.406;10.774;2023-06-19T09:33:40;3.00;;;2.80;;
7653;SDS011;3869;48.406;10.774;2023-06-19T09:36:10;3.83;;;1.97;;
7653;SDS011;3869;48.406;10.774;2023-06-19T09:38:38;2.50;;;2.30;;
7653;SDS011;3869;48.406;10.774;2023-06-19T09:41:08;2.43;;;2.23;;
7653;SDS011;3869;48.406;10.774;2023-06-19T09:43:37;2.40;;;2.20;;
7653;SDS011;3869;48.406;10.774;2023-06-19T09:46:06;4.13;;;2.97;;
7653;SDS011;3869;48.406;10.774;2023-06-19T09:48:35;2.10;;;2.00;;
7653;SDS011;3869;48.406;10.774;2023-06-19T09:51:10;3.90;;;2.40;;
7653;SDS011;3869;48.406;10.774;2023-06-19T09:53:44;20.90;;;2.80;;
7653;SDS011;3869;48.406;10.774;2023-06-19T09:56:14;2.07;;;1.97;;
7653;SDS011;3869;48.406;10.774;2023-06-19T09:58:49;3.07;;;2.40;;
7653;SDS011;3869;48.406;10.774;2023-06-19T10:01:19;2.40;;;1.90;;
7653;SDS011;3869;48.406;10.774;2023-06-19T10:03:48;2.00;;;1.90;;
7653;SDS011;3869;48.406;10.774;2023-06-19T10:06:16;2.60;;;2.30;;
7653;SDS011;3869;48.406;10.774;2023-06-19T10:08:46;6.30;;;2.43;;
7653;SDS011;3869;48.406;10.774;2023-06-19T10:11:15;2.10;;;1.90;;
7653;SDS011;3869;48.406;10.774;2023-06-19T10:13:43;2.33;;;2.00;;
7653;SDS011;3869;48.406;10.774;2023-06-19T10:16:21;1.70;;;1.50;;
7653;SDS011;3869;48.406;10.774;2023-06-19T10:18:54;2.40;;;2.20;;
7653;SDS011;3869;48.406;10.774;2023-06-19T10:21:22;4.80;;;2.30;;
7653;SDS011;3869;48.406;10.774;2023-06-19T10:23:53;2.40;;;2.20;;
7653;SDS011;3869;48.406;10.774;2023-06-19T10:26:30;1.97;;;1.87;;
7653;SDS011;3869;48.406;10.774;2023-06-19T10:28:59;1.83;;;1.73;;
7653;SDS011;3869;48.406;10.774;2023-06-19T10:31:27;1.90;;;1.77;;
7653;SDS011;3869;48.406;10.774;2023-06-19T10:33:55;1.67;;;1.57;;
7653;SDS011;3869;48.406;10.774;2023-06-19T10:36:24;1.87;;;1.77;;
7653;SDS011;3869;48.406;10.774;2023-06-19T10:38:52;1.73;;;1.67;;
7653;SDS011;3869;48.406;10.774;2023-06-19T10:41:22;1.73;;;1.63;;
7653;SDS011;3869;48.406;10.774;2023-06-19T10:43:57;1.80;;;1.60;;
7653;SDS011;3869;48.406;10.774;2023-06-19T10:46:28;1.80;;;1.70;;
7653;SDS011;3869;48.406;10.774;2023-06-19T10:48:58;7.93;;;1.60;;
7653;SDS011;3869;48.406;10.774;2023-06-19T10:51:28;1.47;;;1.43;;
7653;SDS011;3869;48.406;10.774;2023-06-19T10:53:56;2.13;;;2.03;;
7653;SDS011;3869;48.406;10.774;2023-06-19T10:56:25;1.67;;;1.57;;
7653;SDS011;3869;48.406;10.774;2023-06-19T10:58:58;1.63;;;1.53;;
7653;SDS011;3869;48.406;10.774;2023-06-19T11:01:33;7.50;;;1.93;;
7653;SDS011;3869;48.406;10.774;2023-06-19T11:04:03;1.63;;;1.30;;
7653;SDS011;3869;48.406;10.774;2023-06-19T11:06:32;3.30;;;1.30;;
7653;SDS011;3869;48.406;10.774;2023-06-19T11:09:01;1.60;;;1.50;;
7653;SDS011;3869;48.406;10.774;2023-06-19T11:11:38;1.83;;;1.30;;
7653;SDS011;3869;48.406;10.774;2023-06-19T11:14:09;1.30;;;1.20;;
7653;SDS011;3869;48.406;10.774;2023-06-19T11:16:39;1.77;;;1.67;;
7653;SDS011;3869;48.406;10.774;2023-06-19T11:19:09;9.50;;;2.17;;
7653;SDS011;3869;48.406;10.774;2023-06-19T11:21:44;1.50;;;1.40;;
7653;SDS011;3869;48.406;10.774;2023-06-19T11:24:15;1.77;;;1.50;;
7653;SDS011;3869;48.406;10.774;2023-06-19T11:26:44;1.70;;;1.60;;
7653;SDS011;3869;48.406;10.774;2023-06-19T11:29:19;1.63;;;1.53;;
7653;SDS011;3869;48.406;10.774;2023-06-19T11:31:48;2.00;;;1.90;;
7653;SDS011;3869;48.406;10.774;2023-06-19T11:34:18;1.20;;;1.20;;
7653;SDS011;3869;48.406;10.774;2023-06-19T11:36:50;1.30;;;1.20;;
7653;SDS011;3869;48.406;10.774;2023-06-19T11:39:18;1.27;;;1.17;;
7653;SDS011;3869;48.406;10.774;2023-06-19T11:41:46;4.77;;;1.97;;
7653;SDS011;3869;48.406;10.774;2023-06-19T11:44:14;1.77;;;1.63;;
7653;SDS011;3869;48.406;10.774;2023-06-19T11:46:43;1.30;;;1.30;;
7653;SDS011;3869;48.406;10.774;2023-06-19T11:49:13;1.27;;;1.27;;
7653;SDS011;3869;48.406;10.774;2023-06-19T11:51:44;1.50;;;1.40;;
7653;SDS011;3869;48.406;10.774;2023-06-19T11:54:13;1.10;;;1.10;;
7653;SDS011;3869;48.406;10.774;2023-06-19T11:56:42;2.30;;;1.33;;
7653;SDS011;3869;48.406;10.774;2023-06-19T11:59:10;1.77;;;1.67;;
7653;SDS011;3869;48.406;10.774;2023-06-19T12:01:38;1.50;;;1.40;;
7653;SDS011;3869;48.406;10.774;2023-06-19T12:04:07;1.50;;;1.40;;
7653;SDS011;3869;48.406;10.774;2023-06-19T12:06:35;3.30;;;1.80;;
7653;SDS011;3869;48.406;10.774;2023-06-19T12:09:04;2.00;;;1.70;;
7653;SDS011;3869;48.406;10.774;2023-06-19T12:11:32;2.90;;;1.70;;
7653;SDS011;3869;48.406;10.774;2023-06-19T12:14:00;2.23;;;1.30;;
7653;SDS011;3869;48.406;10.774;2023-06-19T12:16:28;1.10;;;1.10;;
7653;SDS011;3869;48.406;10.774;2023-06-19T12:18:56;1.87;;;1.77;;
7653;SDS011;3869;48.406;10.774;2023-06-19T12:21:26;2.10;;;1.90;;
7653;SDS011;3869;48.406;10.774;2023-06-19T12:24:04;1.40;;;1.40;;
7653;SDS011;3869;48.406;10.774;2023-06-19T12:26:33;2.27;;;1.67;;
7653;SDS011;3869;48.406;10.774;2023-06-19T12:29:03;1.83;;;1.73;;
7653;SDS011;3869;48.406;10.774;2023-06-19T12:31:32;1.60;;;1.53;;
7653;SDS011;3869;48.406;10.774;2023-06-19T12:34:00;1.83;;;1.73;;
7653;SDS011;3869;48.406;10.774;2023-06-19T12:36:50;1.50;;;1.40;;
7653;SDS011;3869;48.406;10.774;2023-06-19T12:39:18;2.00;;;1.40;;
7653;SDS011;3869;48.406;10.774;2023-06-19T12:41:46;1.60;;;1.50;;
7653;SDS011;3869;48.406;10.774;2023-06-19T12:44:14;2.47;;;1.90;;
7653;SDS011;3869;48.406;10.774;2023-06-19T12:46:43;1.50;;;1.40;;
7653;SDS011;3869;48.406;10.774;2023-06-19T12:49:11;4.73;;;1.60;;
7653;SDS011;3869;48.406;10.774;2023-06-19T12:51:39;1.80;;;1.70;;
7653;SDS011;3869;48.406;10.774;2023-06-19T12:54:08;1.20;;;1.17;;
7653;SDS011;3869;48.406;10.774;2023-06-19T12:56:36;1.90;;;1.80;;
7653;SDS011;3869;48.406;10.774;2023-06-19T12:59:04;1.50;;;1.40;;
7653;SDS011;3869;48.406;10.774;2023-06-19T13:01:32;2.10;;;1.90;;
7653;SDS011;3869;48.406;10.774;2023-06-19T13:04:00;1.43;;;1.43;;
7653;SDS011;3869;48.406;10.774;2023-06-19T13:06:29;1.60;;;1.50;;
7653;SDS011;3869;48.406;10.774;2023-06-19T13:08:57;1.20;;;1.10;;
7653;SDS011;3869;48.406;10.774;2023-06-19T13:11:26;1.03;;;1.03;;
7653;SDS011;3869;48.406;10.774;2023-06-19T13:13:54;1.67;;;1.40;;
7653;SDS011;3869;48.406;10.774;2023-06-19T13:16:22;3.20;;;1.70;;
7653;SDS011;3869;48.406;10.774;2023-06-19T13:19:10;1.50;;;1.50;;
7653;SDS011;3869;48.406;10.774;2023-06-19T13:21:38;1.83;;;1.53;;
7653;SDS011;3869;48.406;10.774;2023-06-19T13:24:08;1.80;;;1.70;;
7653;SDS011;3869;48.406;10.774;2023-06-19T13:26:37;3.30;;;2.00;;
7653;SDS011;3869;48.406;10.774;2023-06-19T13:29:05;1.60;;;1.47;;
7653;SDS011;3869;48.406;10.774;2023-06-19T13:31:33;4.70;;;1.50;;
7653;SDS011;3869;48.406;10.774;2023-06-19T13:34:01;1.90;;;1.80;;
7653;SDS011;3869;48.406;10.774;2023-06-19T13:36:30;1.77;;;1.67;;
7653;SDS011;3869;48.406;10.774;2023-06-19T13:38:58;1.20;;;1.20;;
7653;SDS011;3869;48.406;10.774;2023-06-19T13:41:26;1.10;;;1.10;;
7653;SDS011;3869;48.406;10.774;2023-06-19T13:43:58;1.80;;;1.70;;
7653;SDS011;3869;48.406;10.774;2023-06-19T13:46:27;2.40;;;1.47;;
7653;SDS011;3869;48.406;10.774;2023-06-19T13:48:55;1.50;;;1.40;;
7653;SDS011;3869;48.406;10.774;2023-06-19T13:51:23;1.20;;;1.10;;
7653;SDS011;3869;48.406;10.774;2023-06-19T13:53:51;1.40;;;1.30;;
7653;SDS011;3869;48.406;10.774;2023-06-19T13:56:20;2.40;;;1.70;;
7653;SDS011;3869;48.406;10.774;2023-06-19T13:58:49;1.30;;;1.20;;
7653;SDS011;3869;48.406;10.774;2023-06-19T14:01:19;1.47;;;1.47;;
7653;SDS011;3869;48.406;10.774;2023-06-19T14:03:47;4.10;;;1.60;;
7653;SDS011;3869;48.406;10.774;2023-06-19T14:06:15;9.00;;;1.60;;
7653;SDS011;3869;48.406;10.774;2023-06-19T14:08:44;1.53;;;1.43;;
7653;SDS011;3869;48.406;10.774;2023-06-19T14:11:12;1.87;;;1.43;;
7653;SDS011;3869;48.406;10.774;2023-06-19T14:13:40;1.50;;;1.40;;
7653;SDS011;3869;48.406;10.774;2023-06-19T14:16:08;1.50;;;1.40;;
7653;SDS011;3869;48.406;10.774;2023-06-19T14:18:38;1.17;;;1.17;;
7653;SDS011;3869;48.406;10.774;2023-06-19T14:21:06;1.60;;;1.60;;
7653;SDS011;3869;48.406;10.774;2023-06-19T14:23:34;1.50;;;1.40;;
7653;SDS011;3869;48.406;10.774;2023-06-19T14:26:06;1.10;;;1.00;;
7653;SDS011;3869;48.406;10.774;2023-06-19T14:28:35;1.60;;;1.50;;
7653;SDS011;3869;48.406;10.774;2023-06-19T14:31:04;1.13;;;1.10;;
7653;SDS011;3869;48.406;10.774;2023-06-19T14:33:32;1.20;;;1.20;;
7653;SDS011;3869;48.406;10.774;2023-06-19T14:36:03;1.77;;;1.63;;
7653;SDS011;3869;48.406;10.774;2023-06-19T14:38:31;1.50;;;1.40;;
7653;SDS011;3869;48.406;10.774;2023-06-19T14:41:00;1.13;;;1.03;;
7653;SDS011;3869;48.406;10.774;2023-06-19T14:43:28;1.40;;;1.30;;
7653;SDS011;3869;48.406;10.774;2023-06-19T14:45:59;1.20;;;1.10;;
7653;SDS011;3869;48.406;10.774;2023-06-19T14:48:27;1.73;;;1.30;;
7653;SDS011;3869;48.406;10.774;2023-06-19T14:50:56;1.57;;;1.47;;
7653;SDS011;3869;48.406;10.774;2023-06-19T14:53:26;1.40;;;1.30;;
7653;SDS011;3869;48.406;10.774;2023-06-19T14:55:54;2.67;;;1.53;;
7653;SDS011;3869;48.406;10.774;2023-06-19T14:58:22;3.40;;;1.70;;
7653;SDS011;3869;48.406;10.774;2023-06-19T15:00:53;1.67;;;1.57;;
7653;SDS011;3869;48.406;10.774;2023-06-19T15:03:21;2.70;;;1.93;;
7653;SDS011;3869;48.406;10.774;2023-06-19T15:05:49;1.83;;;1.73;;
7653;SDS011;3869;48.406;10.774;2023-06-19T15:08:17;1.70;;;1.60;;
7653;SDS011;3869;48.406;10.774;2023-06-19T15:10:49;2.13;;;1.40;;